Time;durP1;ratioP1;P1;durP2;ratioP2;P2;SDS_P1;SDS_P2;PMS_P1;PMS_P2;Temp;Humidity;BMP_temperature;BMP_pressure;BME280_temperature;BME280_humidity;BME280_pressure;Samples;Min_cycle;Max_cycle;Signal;HPM_P1;HPM_P2
2022/08/01 00:00:25;;;;;;;10.85;7.45;;;19.00;99.90;;;;;;5045355;28;20549;-84
2022/08/01 00:02:51;;;;;;;11.40;8.05;;;19.00;99.90;;;;;;5011910;28;20100;-84
2022/08/01 00:05:17;;;;;;;12.68;8.55;;;18.90;99.90;;;;;;4994658;28;20069;-84
2022/08/01 00:07:43;;;;;;;10.98;7.95;;;18.90;99.90;;;;;;5011889;28;20046;-84
2022/08/01 00:10:10;;;;;;;12.13;8.40;;;18.90;99.90;;;;;;5011736;28;20038;-84
2022/08/01 00:12:36;;;;;;;14.23;9.05;;;18.90;99.90;;;;;;5011469;28;20077;-84
2022/08/01 00:15:07;;;;;;;13.55;9.38;;;18.90;99.90;;;;;;4996027;28;20065;-84
2022/08/01 00:17:32;;;;;;;11.77;9.00;;;19.00;99.90;;;;;;4995882;28;20041;-84
2022/08/01 00:19:58;;;;;;;12.50;8.45;;;18.90;99.90;;;;;;5012157;28;20038;-84
2022/08/01 00:22:23;;;;;;;13.63;10.13;;;19.00;99.90;;;;;;5011279;28;20121;-84
2022/08/01 00:24:49;;;;;;;14.15;9.90;;;18.90;99.90;;;;;;5011952;28;20049;-84
2022/08/01 00:27:14;;;;;;;13.90;10.13;;;19.00;99.90;;;;;;5012061;28;20088;-84
2022/08/01 00:29:40;;;;;;;13.98;9.90;;;18.90;99.90;;;;;;5003653;28;20491;-83
2022/08/01 00:32:06;;;;;;;14.30;10.75;;;19.00;99.90;;;;;;5004930;28;20100;-84
2022/08/01 00:34:31;;;;;;;14.18;10.55;;;19.00;99.90;;;;;;4992813;28;20040;-84
2022/08/01 00:36:57;;;;;;;13.93;10.73;;;19.00;99.90;;;;;;5004308;28;20482;-84
2022/08/01 00:39:23;;;;;;;14.95;10.70;;;19.00;99.90;;;;;;5007562;28;20049;-84
2022/08/01 00:41:48;;;;;;;14.73;10.20;;;19.10;99.90;;;;;;5009410;28;20045;-84
2022/08/01 00:44:14;;;;;;;14.02;10.48;;;19.10;99.90;;;;;;5007461;28;20124;-84
2022/08/01 00:46:40;;;;;;;12.98;10.38;;;19.10;99.90;;;;;;5011566;28;20125;-84
2022/08/01 00:49:05;;;;;;;13.80;10.73;;;19.10;99.90;;;;;;5011761;28;20061;-84
2022/08/01 00:51:31;;;;;;;13.98;10.55;;;19.10;99.90;;;;;;5010978;28;20041;-85
2022/08/01 00:53:57;;;;;;;13.70;10.80;;;19.10;99.90;;;;;;5011554;28;20072;-84
2022/08/01 00:56:25;;;;;;;13.05;10.23;;;19.10;99.90;;;;;;5044404;28;20029;-85
2022/08/01 00:58:51;;;;;;;14.43;9.90;;;19.10;99.90;;;;;;5011062;28;20044;-85
2022/08/01 01:01:20;;;;;;;13.90;10.43;;;19.10;99.90;;;;;;5043927;28;20042;-85
2022/08/01 01:03:46;;;;;;;13.80;10.80;;;19.10;99.90;;;;;;5010854;28;20057;-85
2022/08/01 01:06:46;;;;;;;13.25;9.98;;;19.10;99.90;;;;;;4994507;28;20128;-85
2022/08/01 01:09:30;;;;;;;14.90;11.23;;;19.10;99.90;;;;;;5011259;28;20095;-85
2022/08/01 01:12:12;;;;;;;14.82;10.43;;;19.10;99.90;;;;;;4994321;28;20639;-85
2022/08/01 01:15:08;;;;;;;15.23;11.23;;;19.10;99.90;;;;;;5010981;28;20115;-84
2022/08/01 01:17:48;;;;;;;13.75;10.90;;;19.10;99.90;;;;;;5010595;28;20054;-85
2022/08/01 01:20:16;;;;;;;15.77;11.38;;;19.10;99.90;;;;;;4994652;28;20036;-85
2022/08/01 01:23:12;;;;;;;15.57;11.32;;;19.00;99.90;;;;;;5010611;28;20080;-85
2022/08/01 01:25:37;;;;;;;15.52;10.45;;;19.10;99.90;;;;;;4994451;28;20049;-85
2022/08/01 01:28:08;;;;;;;13.82;10.50;;;19.00;99.90;;;;;;5011347;28;20033;-84
2022/08/01 01:30:35;;;;;;;15.27;11.20;;;19.00;99.90;;;;;;5010653;28;20054;-84
2022/08/01 01:33:05;;;;;;;14.93;10.13;;;19.00;99.90;;;;;;5010505;28;20042;-84
2022/08/01 01:35:38;;;;;;;14.05;10.57;;;19.00;99.90;;;;;;4994229;28;20044;-84
2022/08/01 01:38:25;;;;;;;14.32;11.00;;;19.00;99.90;;;;;;5010702;28;20053;-85
2022/08/01 01:40:53;;;;;;;14.02;11.20;;;19.00;99.90;;;;;;5009993;28;20042;-84
2022/08/01 01:43:19;;;;;;;14.30;11.40;;;19.00;99.90;;;;;;5010798;28;20046;-84
2022/08/01 01:45:47;;;;;;;15.95;11.23;;;19.00;99.90;;;;;;4994480;28;20045;-84
2022/08/01 01:48:19;;;;;;;14.45;10.95;;;19.00;99.90;;;;;;5010850;28;20154;-84
2022/08/01 01:50:49;;;;;;;13.55;10.27;;;19.00;99.90;;;;;;5010280;28;20410;-84
2022/08/01 01:53:19;;;;;;;13.98;9.88;;;19.00;99.90;;;;;;5010699;28;20372;-84
2022/08/01 01:55:48;;;;;;;13.90;10.00;;;19.00;99.90;;;;;;5010778;28;20045;-84
2022/08/01 01:58:15;;;;;;;16.40;11.30;;;19.00;99.90;;;;;;5010609;28;20056;-84
2022/08/01 02:00:43;;;;;;;12.52;9.35;;;19.00;99.90;;;;;;5010616;28;20394;-84
2022/08/01 02:03:11;;;;;;;12.70;8.98;;;19.00;99.90;;;;;;5010023;28;20046;-84
2022/08/01 02:05:38;;;;;;;14.02;9.70;;;19.00;99.90;;;;;;5010396;28;20097;-84
2022/08/01 02:08:05;;;;;;;11.68;8.50;;;19.00;99.90;;;;;;5010499;28;20054;-84
2022/08/01 02:10:31;;;;;;;12.63;9.15;;;19.00;99.90;;;;;;5010216;28;20065;-84
2022/08/01 02:12:59;;;;;;;11.65;8.63;;;19.00;99.90;;;;;;5010167;28;20045;-84
2022/08/01 02:15:26;;;;;;;12.07;8.73;;;19.00;99.90;;;;;;5010727;28;20415;-84
2022/08/01 02:17:54;;;;;;;11.68;8.10;;;19.00;99.90;;;;;;5010308;28;20037;-84
2022/08/01 02:20:20;;;;;;;10.80;7.53;;;19.00;99.90;;;;;;5010445;28;20045;-84
2022/08/01 02:22:53;;;;;;;12.13;8.93;;;19.00;99.90;;;;;;5010057;28;20041;-84
2022/08/01 02:25:21;;;;;;;;;;;19.00;99.90;;;;;;4994106;28;20487;-85
2022/08/01 02:28:01;;;;;;;15.10;8.30;;;18.90;99.90;;;;;;5010463;28;19923;-84
2022/08/01 02:30:32;;;;;;;12.63;8.43;;;19.00;99.90;;;;;;5013951;28;20517;-84
2022/08/01 02:33:20;;;;;;;12.57;8.32;;;19.00;99.90;;;;;;4997105;28;20120;-84
2022/08/01 02:35:51;;;;;;;11.50;7.82;;;19.00;99.90;;;;;;5013797;28;20088;-83
2022/08/01 02:38:20;;;;;;;8.65;5.00;;;19.00;99.90;;;;;;5013755;28;20041;-84
2022/08/01 02:40:50;;;;;;;9.75;5.30;;;19.00;99.90;;;;;;5013567;28;20107;-84
2022/08/01 02:43:20;;;;;;;8.40;5.03;;;19.00;99.90;;;;;;5013535;28;20042;-84
2022/08/01 02:45:52;;;;;;;8.10;4.15;;;19.00;99.90;;;;;;5013719;28;20042;-84
2022/08/01 02:48:19;;;;;;;7.45;4.15;;;19.00;99.90;;;;;;5013520;28;20038;-84
2022/08/01 02:50:48;;;;;;;7.93;3.70;;;19.00;99.90;;;;;;5013503;28;20046;-84
2022/08/01 02:53:16;;;;;;;8.13;3.75;;;19.00;99.90;;;;;;4997009;28;20125;-84
2022/08/01 02:55:44;;;;;;;7.45;3.70;;;19.00;99.90;;;;;;5013408;28;20038;-84
2022/08/01 02:58:12;;;;;;;7.78;3.50;;;19.00;99.90;;;;;;5013642;28;20052;-84
2022/08/01 03:00:40;;;;;;;7.38;3.80;;;19.00;99.90;;;;;;4997150;28;20042;-84
2022/08/01 03:03:07;;;;;;;7.03;3.65;;;19.00;99.90;;;;;;4997092;28;20129;-84
2022/08/01 03:05:34;;;;;;;7.75;3.75;;;19.00;99.90;;;;;;5013310;28;20483;-84
2022/08/01 03:08:00;;;;;;;7.03;3.53;;;19.00;99.90;;;;;;5013401;28;20125;-84
2022/08/01 03:10:28;;;;;;;7.43;3.72;;;19.00;99.90;;;;;;5013367;28;20118;-85
2022/08/01 03:12:57;;;;;;;8.32;4.05;;;19.00;99.90;;;;;;5013088;28;20499;-84
2022/08/01 03:15:26;;;;;;;7.15;4.15;;;19.00;99.90;;;;;;4996708;28;20045;-84
2022/08/01 03:17:54;;;;;;;8.10;4.35;;;19.00;99.90;;;;;;5014308;28;20042;-84
2022/08/01 03:20:24;;;;;;;7.25;3.95;;;19.00;99.90;;;;;;5013208;28;20092;-84
2022/08/01 03:22:52;;;;;;;7.03;3.97;;;19.00;99.90;;;;;;5012498;28;20034;-85
2022/08/01 03:25:19;;;;;;;10.30;4.07;;;19.00;99.90;;;;;;5013001;28;20042;-85
2022/08/01 03:27:56;;;;;;;9.35;5.07;;;19.00;99.90;;;;;;5013161;28;20034;-84
2022/08/01 03:30:24;;;;;;;7.90;4.72;;;19.00;99.90;;;;;;5012974;28;20403;-84
2022/08/01 03:32:49;;;;;;;9.15;5.07;;;19.00;99.90;;;;;;5012448;28;20038;-85
2022/08/01 03:35:15;;;;;;;8.15;4.75;;;19.00;99.90;;;;;;5012999;28;20053;-84
2022/08/01 03:37:44;;;;;;;8.80;4.72;;;19.00;99.90;;;;;;5012962;28;20038;-84
2022/08/01 03:40:17;;;;;;;8.25;4.57;;;19.00;99.90;;;;;;5012578;28;20639;-84
2022/08/01 03:42:48;;;;;;;8.52;4.55;;;19.00;99.90;;;;;;5012231;28;20033;-84
2022/08/01 03:45:27;;;;;;;8.95;5.30;;;19.00;99.90;;;;;;4996303;28;20056;-84
2022/08/01 03:47:59;;;;;;;8.13;4.60;;;19.00;99.90;;;;;;5012863;28;20165;-84
2022/08/01 03:50:26;;;;;;;9.30;4.20;;;18.90;99.90;;;;;;5012502;28;20038;-84
2022/08/01 03:52:54;;;;;;;8.90;4.15;;;18.90;99.90;;;;;;4996210;28;20087;-84
2022/08/01 03:55:21;;;;;;;7.72;3.85;;;18.90;99.90;;;;;;5012244;28;20127;-84
2022/08/01 03:57:48;;;;;;;7.07;2.97;;;18.90;99.90;;;;;;4996116;28;20038;-84
2022/08/01 04:00:18;;;;;;;7.60;2.83;;;18.90;99.90;;;;;;5012737;28;20093;-84
2022/08/01 04:02:45;;;;;;;8.07;3.25;;;18.90;99.90;;;;;;5012361;28;20483;-84
2022/08/01 04:05:11;;;;;;;8.93;3.15;;;18.90;99.90;;;;;;4996116;28;20037;-84
2022/08/01 04:07:38;;;;;;;7.78;2.60;;;18.90;99.90;;;;;;5011840;28;20044;-84
2022/08/01 04:10:05;;;;;;;7.10;2.70;;;18.90;99.90;;;;;;5011748;28;20042;-84
2022/08/01 04:12:31;;;;;;;9.32;3.20;;;18.90;99.90;;;;;;5011674;28;20077;-84
2022/08/01 04:14:56;;;;;;;8.50;2.60;;;18.80;99.90;;;;;;5012420;28;20076;-84
2022/08/01 04:17:22;;;;;;;9.32;2.88;;;18.80;99.90;;;;;;5012372;28;20499;-85
2022/08/01 04:19:47;;;;;;;7.18;2.50;;;18.80;99.90;;;;;;5012220;28;20437;-84
2022/08/01 04:22:16;;;;;;;7.28;2.53;;;18.80;99.90;;;;;;5012586;28;20455;-84
2022/08/01 04:24:48;;;;;;;9.00;2.63;;;18.80;99.90;;;;;;4995458;28;20042;-84
2022/08/01 04:27:21;;;;;;;6.45;2.60;;;18.80;99.90;;;;;;5012002;28;20042;-85
2022/08/01 04:29:50;;;;;;;10.55;2.88;;;18.80;99.90;;;;;;5011982;28;20364;-84
2022/08/01 04:32:18;;;;;;;8.70;2.63;;;18.80;99.90;;;;;;5011257;28;20434;-84
2022/08/01 04:34:46;;;;;;;7.28;2.60;;;18.80;99.90;;;;;;5011567;28;20049;-84
2022/08/01 04:37:16;;;;;;;9.32;2.42;;;18.80;99.90;;;;;;4995546;28;20080;-84
2022/08/01 04:39:42;;;;;;;8.60;2.78;;;18.80;99.90;;;;;;4995240;28;20053;-84
2022/08/01 04:42:10;;;;;;;8.63;3.00;;;18.80;99.90;;;;;;4994834;28;20507;-84
2022/08/01 04:44:37;;;;;;;8.30;2.72;;;18.80;99.90;;;;;;5011527;28;20132;-84
2022/08/01 04:47:04;;;;;;;6.88;2.58;;;18.80;99.90;;;;;;5011326;28;20521;-84
2022/08/01 04:49:37;;;;;;;6.75;2.63;;;18.80;99.90;;;;;;5011429;28;20045;-84
2022/08/01 04:52:03;;;;;;;8.82;2.95;;;18.90;99.90;;;;;;5010097;28;20045;-85
2022/08/01 04:54:33;;;;;;;9.13;2.72;;;18.80;99.90;;;;;;5011510;28;20049;-84
2022/08/01 04:56:59;;;;;;;8.60;2.60;;;18.80;99.90;;;;;;5011330;28;20038;-84
2022/08/01 04:59:41;;;;;;;8.32;2.35;;;18.80;99.90;;;;;;5011160;28;20057;-84
2022/08/01 05:02:09;;;;;;;9.77;2.72;;;18.80;99.90;;;;;;4994611;28;20505;-84
2022/08/01 05:04:36;;;;;;;9.55;2.53;;;18.80;99.90;;;;;;5011531;28;20065;-84
2022/08/01 05:07:02;;;;;;;8.98;2.60;;;18.80;99.90;;;;;;5011182;28;20056;-84
2022/08/01 05:09:28;;;;;;;11.50;3.35;;;18.80;99.90;;;;;;5011238;28;20128;-84
2022/08/01 05:11:53;;;;;;;10.10;2.80;;;18.80;99.90;;;;;;5010606;28;20085;-84
2022/08/01 05:14:19;;;;;;;7.95;2.60;;;18.80;99.90;;;;;;4994278;28;20403;-84
2022/08/01 05:16:45;;;;;;;9.75;2.97;;;18.80;99.90;;;;;;5011010;28;20084;-84
2022/08/01 05:19:11;;;;;;;9.27;2.72;;;18.80;99.90;;;;;;5011197;28;20454;-84
2022/08/01 05:21:37;;;;;;;10.73;3.20;;;18.80;99.90;;;;;;5010747;28;20108;-84
2022/08/01 05:24:06;;;;;;;11.55;3.10;;;18.90;99.90;;;;;;4994666;28;20522;-84
2022/08/01 05:26:32;;;;;;;10.05;2.78;;;18.80;99.90;;;;;;5010828;28;20588;-84
2022/08/01 05:28:59;;;;;;;10.88;3.38;;;18.80;99.90;;;;;;5011041;28;20124;-84
2022/08/01 05:31:24;;;;;;;9.73;3.08;;;18.80;99.90;;;;;;5010203;28;20100;-84
2022/08/01 05:33:50;;;;;;;9.25;3.42;;;18.90;99.90;;;;;;5012148;28;20403;-84
2022/08/01 05:36:15;;;;;;;9.80;3.35;;;18.90;99.90;;;;;;5010862;28;20038;-84
2022/08/01 05:38:41;;;;;;;11.63;3.13;;;18.80;99.90;;;;;;5010823;28;20388;-84
2022/08/01 05:41:06;;;;;;;8.32;2.67;;;18.80;99.90;;;;;;5009969;28;20513;-84
2022/08/01 05:43:32;;;;;;;10.10;3.33;;;18.80;99.90;;;;;;5010423;28;20575;-84
2022/08/01 05:45:58;;;;;;;8.98;2.90;;;18.80;99.90;;;;;;4994507;28;20244;-84
2022/08/01 05:48:24;;;;;;;9.48;2.90;;;18.80;99.90;;;;;;5010954;28;20042;-84
2022/08/01 05:50:50;;;;;;;9.45;3.47;;;18.80;99.90;;;;;;4994121;28;20491;-84
2022/08/01 05:53:16;;;;;;;11.35;3.15;;;18.80;99.90;;;;;;5010355;28;20042;-84
2022/08/01 05:55:41;;;;;;;11.95;3.10;;;18.80;99.90;;;;;;5010387;28;20038;-85
2022/08/01 05:58:07;;;;;;;10.63;3.17;;;18.80;99.90;;;;;;4994511;28;20048;-85
2022/08/01 06:00:33;;;;;;;10.95;3.10;;;18.80;99.90;;;;;;5010385;28;20503;-84
2022/08/01 06:02:58;;;;;;;12.48;3.97;;;18.70;99.90;;;;;;5011709;28;20064;-84
2022/08/01 06:05:24;;;;;;;14.80;3.97;;;18.80;99.90;;;;;;5014429;28;20046;-85
2022/08/01 06:07:49;;;;;;;10.73;3.33;;;18.80;99.90;;;;;;5014519;28;20041;-85
2022/08/01 06:10:15;;;;;;;11.25;3.75;;;18.80;99.90;;;;;;5014399;28;20249;-85
2022/08/01 06:12:41;;;;;;;12.30;3.42;;;18.80;99.90;;;;;;5013793;28;20045;-84
2022/08/01 06:15:07;;;;;;;13.75;3.78;;;18.80;99.90;;;;;;5014418;28;20133;-84
2022/08/01 06:17:33;;;;;;;13.00;3.38;;;18.80;99.90;;;;;;5014676;28;20116;-85
2022/08/01 06:19:59;;;;;;;12.55;3.60;;;18.80;99.90;;;;;;5014718;28;20497;-85
2022/08/01 06:22:25;;;;;;;15.38;3.40;;;18.80;99.90;;;;;;5013739;28;20081;-85
2022/08/01 06:24:51;;;;;;;12.10;3.55;;;18.80;99.90;;;;;;4998123;28;20034;-84
2022/08/01 06:27:18;;;;;;;14.05;3.38;;;18.90;99.90;;;;;;5014345;28;20509;-86
2022/08/01 06:29:43;;;;;;;14.93;3.38;;;18.90;99.90;;;;;;5014200;28;20204;-85
2022/08/01 06:32:09;;;;;;;14.75;3.63;;;19.00;99.90;;;;;;5013720;28;20558;-85
2022/08/01 06:34:35;;;;;;;13.98;3.97;;;19.00;99.90;;;;;;5014042;28;20102;-85
2022/08/01 06:37:01;;;;;;;15.80;3.65;;;19.10;99.90;;;;;;5013599;28;20034;-85
2022/08/01 06:39:26;;;;;;;17.30;3.83;;;19.10;99.90;;;;;;5013340;28;20517;-85
2022/08/01 06:41:52;;;;;;;14.38;3.65;;;19.20;99.90;;;;;;4997154;28;20046;-85
2022/08/01 06:44:17;;;;;;;16.73;3.80;;;19.20;99.90;;;;;;5014003;28;20049;-85
2022/08/01 06:46:43;;;;;;;14.95;3.83;;;19.30;99.90;;;;;;5013774;28;20068;-85
2022/08/01 06:49:09;;;;;;;14.50;3.85;;;19.30;99.90;;;;;;5013775;28;20179;-85
2022/08/01 06:51:34;;;;;;;17.13;3.72;;;19.40;99.90;;;;;;4996839;28;20430;-85
2022/08/01 06:54:00;;;;;;;17.88;4.15;;;19.40;99.90;;;;;;5013672;28;20045;-85
2022/08/01 06:56:25;;;;;;;14.80;3.97;;;19.50;99.90;;;;;;5014877;28;20042;-86
2022/08/01 06:58:51;;;;;;;13.95;3.78;;;19.50;99.90;;;;;;5013815;28;20042;-85
2022/08/01 07:01:17;;;;;;;15.93;4.68;;;19.50;99.90;;;;;;4996848;28;20038;-85
2022/08/01 07:03:42;;;;;;;16.13;3.92;;;19.60;99.90;;;;;;5013742;28;20042;-86
2022/08/01 07:06:08;;;;;;;15.80;3.95;;;19.60;99.90;;;;;;5013634;28;20053;-85
2022/08/01 07:08:33;;;;;;;14.80;3.92;;;19.70;99.90;;;;;;4997277;28;20038;-85
2022/08/01 07:10:59;;;;;;;17.02;4.30;;;19.80;99.90;;;;;;5014004;28;20048;-85
2022/08/01 07:13:30;;;;;;;14.40;3.63;;;19.90;99.90;;;;;;5013290;28;20088;-85
2022/08/01 07:15:56;;;;;;;14.80;4.07;;;19.90;99.90;;;;;;5012659;28;20042;-85
2022/08/01 07:18:22;;;;;;;13.45;3.90;;;19.90;99.90;;;;;;5013600;28;20403;-86
2022/08/01 07:20:49;;;;;;;17.30;4.25;;;19.90;99.90;;;;;;5013017;28;20500;-85
2022/08/01 07:23:15;;;;;;;15.40;3.75;;;19.90;99.90;;;;;;4997037;28;20041;-85
2022/08/01 07:25:41;;;;;;;14.98;4.13;;;19.90;99.90;;;;;;5013068;28;20053;-86
2022/08/01 07:28:07;;;;;;;13.55;3.65;;;19.80;99.90;;;;;;5013207;28;20042;-86
2022/08/01 07:30:33;;;;;;;15.85;4.00;;;19.80;99.90;;;;;;5012967;28;20515;-85
2022/08/01 07:32:58;;;;;;;14.13;3.92;;;19.90;99.90;;;;;;4996484;28;20040;-85
2022/08/01 07:35:24;;;;;;;14.95;4.03;;;19.90;99.90;;;;;;5012992;28;20030;-85
2022/08/01 07:37:49;;;;;;;17.48;4.40;;;19.90;99.90;;;;;;4996510;28;20042;-85
2022/08/01 07:40:17;;;;;;;14.82;3.72;;;19.90;99.90;;;;;;5012791;28;20069;-85
2022/08/01 07:42:44;;;;;;;15.30;3.72;;;19.90;99.90;;;;;;4996260;28;20124;-86
2022/08/01 07:45:11;;;;;;;16.15;3.67;;;19.90;99.90;;;;;;5012640;28;20082;-85
2022/08/01 07:47:37;;;;;;;18.38;3.95;;;19.90;99.90;;;;;;5013055;28;20116;-86
2022/08/01 07:50:04;;;;;;;16.42;3.88;;;19.90;99.90;;;;;;5012820;28;20649;-85
2022/08/01 07:52:30;;;;;;;15.57;4.28;;;19.90;99.90;;;;;;5011963;28;20038;-86
2022/08/01 07:54:56;;;;;;;14.93;3.80;;;19.90;99.90;;;;;;4996396;28;20164;-86
2022/08/01 07:57:23;;;;;;;15.93;4.07;;;19.90;99.90;;;;;;4996387;28;20091;-86
2022/08/01 07:59:48;;;;;;;16.38;3.95;;;19.90;99.90;;;;;;4996133;28;20042;-85
2022/08/01 08:02:14;;;;;;;14.50;3.60;;;19.90;99.90;;;;;;4995986;28;20034;-85
2022/08/01 08:04:40;;;;;;;16.70;4.38;;;19.90;99.90;;;;;;5012800;28;20046;-86
2022/08/01 08:07:05;;;;;;;15.55;3.72;;;20.00;99.90;;;;;;5012281;28;20727;-85
2022/08/01 08:09:31;;;;;;;15.02;3.72;;;20.00;99.90;;;;;;5012412;28;20069;-86
2022/08/01 08:11:57;;;;;;;16.38;3.65;;;20.00;99.90;;;;;;5012141;28;20129;-86
2022/08/01 08:14:23;;;;;;;15.05;4.75;;;20.00;99.90;;;;;;5012196;28;20121;-85
2022/08/01 08:16:50;;;;;;;17.80;4.32;;;20.00;99.90;;;;;;5007386;28;20882;-85
2022/08/01 08:19:16;;;;;;;18.48;4.53;;;20.00;99.90;;;;;;5005390;28;20061;-85
2022/08/01 08:21:41;;;;;;;17.02;4.18;;;20.10;99.90;;;;;;5007190;28;20143;-86
2022/08/01 08:24:21;;;;;;;20.88;4.50;;;20.10;99.90;;;;;;5004241;28;20038;-86
2022/08/01 08:26:47;;;;;;;16.90;4.63;;;20.10;99.90;;;;;;5010843;28;20049;-85
2022/08/01 08:29:14;;;;;;;15.70;3.70;;;20.10;99.90;;;;;;5011553;28;20085;-85
2022/08/01 08:31:40;;;;;;;13.73;4.07;;;20.10;99.90;;;;;;4992018;28;20502;-85
2022/08/01 08:34:05;;;;;;;17.25;4.43;;;20.20;99.90;;;;;;5004296;28;20495;-85
2022/08/01 08:36:31;;;;;;;14.43;3.78;;;20.20;99.90;;;;;;5009986;28;20060;-85
2022/08/01 08:38:57;;;;;;;16.13;4.53;;;20.20;99.90;;;;;;5010766;28;20034;-85
2022/08/01 08:41:23;;;;;;;16.30;4.13;;;20.30;99.90;;;;;;4993874;28;20045;-85
2022/08/01 08:43:48;;;;;;;14.52;4.82;;;20.40;99.90;;;;;;5010841;28;20483;-85
2022/08/01 08:46:15;;;;;;;15.90;4.28;;;20.40;99.90;;;;;;5011114;28;20487;-86
2022/08/01 08:48:48;;;;;;;17.55;5.13;;;20.40;99.90;;;;;;5088621;27;20393;-84
2022/08/01 08:51:17;;;;;;;17.75;5.25;;;20.40;99.90;;;;;;5084543;28;20110;-84
2022/08/01 08:53:45;;;;;;;13.15;3.35;;;20.40;99.90;;;;;;5077545;28;20047;-85
2022/08/01 08:56:14;;;;;;;14.52;3.83;;;20.50;99.90;;;;;;5078810;28;20705;-85
2022/08/01 08:58:45;;;;;;;15.85;4.82;;;20.60;99.90;;;;;;5076684;28;20040;-85
2022/08/01 09:01:12;;;;;;;15.32;4.93;;;20.60;99.90;;;;;;5059178;28;20041;-85
2022/08/01 09:03:38;;;;;;;15.32;5.70;;;20.70;99.90;;;;;;5076627;28;20041;-85
2022/08/01 09:06:04;;;;;;;14.98;4.00;;;20.70;99.90;;;;;;5076957;28;20078;-85
2022/08/01 09:08:30;;;;;;;13.85;3.92;;;20.80;99.90;;;;;;5079524;28;20040;-85
2022/08/01 09:10:55;;;;;;;18.00;4.90;;;20.80;99.90;;;;;;5087607;28;20137;-85
2022/08/01 09:13:21;;;;;;;18.13;4.80;;;20.90;99.90;;;;;;5087655;28;20493;-85
2022/08/01 09:15:50;;;;;;;15.32;3.83;;;20.90;99.90;;;;;;5087570;28;20044;-85
2022/08/01 09:18:32;;;;;;;13.63;3.92;;;21.00;99.90;;;;;;5087909;28;20036;-85
2022/08/01 09:21:19;;;;;;;13.35;3.13;;;21.10;99.90;;;;;;5087377;28;20040;-85
2022/08/01 09:23:53;;;;;;;12.85;3.25;;;21.10;99.90;;;;;;5087813;28;20540;-85
2022/08/01 09:26:31;;;;;;;15.55;3.83;;;21.20;99.90;;;;;;5087547;28;20405;-85
2022/08/01 09:28:59;;;;;;;14.98;4.13;;;21.30;99.90;;;;;;5087618;28;20032;-84
2022/08/01 09:31:27;;;;;;;15.85;4.03;;;21.30;99.90;;;;;;5087140;28;20512;-84
2022/08/01 09:34:10;;;;;;;15.90;4.00;;;21.40;99.90;;;;;;5087247;28;20040;-85
2022/08/01 09:36:52;;;;;;;15.02;4.65;;;21.40;99.90;;;;;;5087356;28;20378;-85
2022/08/01 09:39:22;;;;;;;16.07;3.70;;;21.40;99.90;;;;;;5070203;28;20119;-85
2022/08/01 09:41:48;;;;;;;16.13;3.28;;;21.40;99.90;;;;;;5086017;28;20044;-84
2022/08/01 09:44:17;;;;;;;12.60;3.40;;;21.50;99.90;;;;;;5087157;28;20036;-85
2022/08/01 09:46:55;;;;;;;14.50;3.13;;;21.60;99.90;;;;;;5086903;28;20056;-85
2022/08/01 09:49:33;;;;;;;14.75;3.95;;;21.60;99.90;;;;;;5070247;28;20036;-84
2022/08/01 09:52:14;;;;;;;16.63;5.65;;;21.60;99.90;;;;;;5086590;28;20044;-85
2022/08/01 09:54:40;;;;;;;13.07;3.65;;;21.60;99.90;;;;;;5087194;28;20374;-85
2022/08/01 09:57:14;;;;;;;14.38;3.30;;;21.70;99.90;;;;;;5086802;28;20116;-84
2022/08/01 09:59:43;;;;;;;15.65;3.97;;;21.70;99.90;;;;;;5059433;28;20037;-85
2022/08/01 10:02:15;;;;;;;16.55;4.40;;;21.70;99.90;;;;;;5072784;28;20083;-85
2022/08/01 10:04:48;;;;;;;15.20;3.70;;;21.70;99.90;;;;;;5073016;28;20501;-85
2022/08/01 10:07:15;;;;;;;11.75;3.50;;;21.80;99.90;;;;;;5072841;28;20041;-85
2022/08/01 10:09:42;;;;;;;15.57;3.60;;;21.90;99.90;;;;;;5073092;28;20086;-85
2022/08/01 10:12:09;;;;;;;14.25;3.80;;;21.90;99.90;;;;;;5072833;28;20043;-85
2022/08/01 10:14:37;;;;;;;11.82;3.25;;;21.90;99.90;;;;;;5072452;28;20127;-85
2022/08/01 10:17:06;;;;;;;13.32;3.25;;;22.00;99.90;;;;;;5056476;28;20423;-86
2022/08/01 10:19:32;;;;;;;10.85;2.72;;;22.10;99.90;;;;;;5056397;28;20409;-86
2022/08/01 10:21:58;;;;;;;15.20;3.88;;;22.20;99.90;;;;;;5072647;28;20047;-85
2022/08/01 10:24:27;;;;;;;13.35;2.88;;;22.20;99.90;;;;;;5072920;28;20036;-86
2022/08/01 10:26:59;;;;;;;14.38;3.55;;;22.30;99.90;;;;;;5072659;28;20079;-86
2022/08/01 10:29:26;;;;;;;12.90;3.05;;;22.30;99.90;;;;;;5055765;28;20072;-86
2022/08/01 10:31:52;;;;;;;10.02;2.78;;;22.30;99.90;;;;;;5072286;28;20043;-86
2022/08/01 10:34:19;;;;;;;11.57;2.92;;;22.40;99.90;;;;;;5072696;28;20032;-86
2022/08/01 10:36:46;;;;;;;13.80;3.50;;;22.50;99.90;;;;;;5072755;28;20417;-86
2022/08/01 10:39:12;;;;;;;16.10;3.38;;;22.50;99.90;;;;;;5072928;28;20047;-86
2022/08/01 10:41:39;;;;;;;11.10;3.13;;;22.60;99.90;;;;;;5072464;28;20044;-86
2022/08/01 10:44:07;;;;;;;10.85;2.92;;;22.60;99.90;;;;;;5072036;28;20036;-85
2022/08/01 10:46:37;;;;;;;9.88;2.63;;;22.60;99.90;;;;;;5072389;28;20036;-86
2022/08/01 10:49:11;;;;;;;11.98;2.60;;;22.70;99.90;;;;;;5072388;28;20523;-86
2022/08/01 10:51:39;;;;;;;9.40;2.50;;;22.80;99.90;;;;;;5072070;28;20029;-86
2022/08/01 10:54:10;;;;;;;15.65;3.20;;;22.80;99.90;;;;;;5065968;28;20036;-86
2022/08/01 10:56:45;;;;;;;12.38;3.08;;;22.90;99.90;;;;;;5062436;28;20056;-86
2022/08/01 10:59:24;;;;;;;10.23;2.47;;;22.90;99.90;;;;;;5057741;28;20052;-86
2022/08/01 11:02:01;;;;;;;11.93;3.42;;;23.10;99.90;;;;;;5064192;28;20068;-86
2022/08/01 11:04:39;;;;;;;11.32;3.22;;;23.10;99.90;;;;;;5072037;28;20111;-86
2022/08/01 11:07:07;;;;;;;8.90;2.28;;;23.10;99.90;;;;;;5055346;28;20044;-86
2022/08/01 11:09:45;;;;;;;9.77;2.50;;;23.10;99.90;;;;;;5071840;28;20040;-86
2022/08/01 11:12:18;;;;;;;10.75;2.45;;;23.10;99.90;;;;;;5054432;28;20036;-86
2022/08/01 11:14:59;;;;;;;9.40;2.35;;;23.30;99.90;;;;;;5054740;28;20493;-86
2022/08/01 11:17:35;;;;;;;11.13;2.67;;;23.40;99.90;;;;;;5070427;28;20047;-86
2022/08/01 11:20:09;;;;;;;12.27;2.58;;;23.40;99.90;;;;;;5071705;28;20082;-86
2022/08/01 11:23:06;;;;;;;12.55;3.80;;;23.50;99.90;;;;;;5071147;28;20047;-86
2022/08/01 11:25:37;;;;;;;11.82;3.40;;;23.60;99.90;;;;;;5071940;28;20504;-86
2022/08/01 11:28:19;;;;;;;10.63;2.75;;;23.50;99.90;;;;;;5055108;28;20520;-86
2022/08/01 11:30:51;;;;;;;10.83;2.70;;;23.60;99.90;;;;;;5071470;28;20103;-86
2022/08/01 11:33:38;;;;;;;9.00;2.33;;;23.60;99.90;;;;;;5071892;28;20283;-86
2022/08/01 11:36:10;;;;;;;9.60;2.08;;;23.70;99.90;;;;;;5071402;28;20041;-86
2022/08/01 11:38:37;;;;;;;11.07;2.58;;;23.70;99.90;;;;;;5071506;28;20048;-86
2022/08/01 11:41:09;;;;;;;7.82;2.33;;;23.80;99.90;;;;;;5071284;28;20040;-86
2022/08/01 11:43:34;;;;;;;11.68;3.10;;;23.90;99.90;;;;;;5070874;28;20177;-86
2022/08/01 11:46:01;;;;;;;12.82;2.92;;;24.00;99.90;;;;;;5054991;28;20499;-86
2022/08/01 11:48:28;;;;;;;9.98;2.70;;;24.00;99.90;;;;;;5071197;28;20153;-86
2022/08/01 11:50:57;;;;;;;11.98;3.92;;;24.00;99.90;;;;;;5070176;28;20119;-86
2022/08/01 11:53:23;;;;;;;11.52;2.17;;;24.00;99.90;;;;;;5072548;28;20047;-86
2022/08/01 11:55:51;;;;;;;7.75;1.92;;;24.00;99.90;;;;;;5054419;28;20119;-86
2022/08/01 11:58:22;;;;;;;8.70;1.80;;;24.00;99.90;;;;;;5070965;28;20497;-86
2022/08/01 12:00:55;;;;;;;8.77;2.33;;;24.10;99.90;;;;;;5070968;28;20090;-86
2022/08/01 12:03:27;;;;;;;8.65;1.77;;;24.10;99.60;;;;;;5070825;28;20041;-86
2022/08/01 12:05:53;;;;;;;10.88;2.15;;;24.00;99.00;;;;;;5054598;28;20123;-86
2022/08/01 12:08:34;;;;;;;11.30;2.35;;;24.00;98.60;;;;;;5054074;28;20032;-86
2022/08/01 12:11:01;;;;;;;9.88;2.00;;;23.90;99.40;;;;;;5070574;28;20048;-86
2022/08/01 12:13:26;;;;;;;9.38;2.00;;;23.90;98.60;;;;;;5071125;28;20516;-86
2022/08/01 12:15:53;;;;;;;10.95;2.10;;;23.80;99.00;;;;;;5070544;28;20036;-86
2022/08/01 12:18:19;;;;;;;10.75;2.50;;;23.90;99.10;;;;;;5054364;28;20448;-86
2022/08/01 12:20:46;;;;;;;7.05;1.80;;;23.80;99.90;;;;;;5070462;28;20587;-86
2022/08/01 12:23:14;;;;;;;8.23;2.03;;;23.90;99.50;;;;;;5053812;28;20083;-86
2022/08/01 12:25:43;;;;;;;8.07;1.70;;;23.90;98.70;;;;;;5054350;28;20045;-86
2022/08/01 12:28:10;;;;;;;8.38;2.00;;;23.90;98.70;;;;;;5070536;28;20040;-86
2022/08/01 12:30:37;;;;;;;9.63;2.15;;;23.90;97.40;;;;;;5070359;28;20302;-86
2022/08/01 12:33:10;;;;;;;7.32;1.60;;;24.00;96.50;;;;;;5070602;28;20036;-86
2022/08/01 12:35:37;;;;;;;8.57;1.85;;;24.00;96.80;;;;;;5070779;28;20089;-87
2022/08/01 12:38:06;;;;;;;9.82;2.13;;;24.10;98.40;;;;;;5053967;28;20491;-86
2022/08/01 12:40:40;;;;;;;10.63;1.90;;;24.20;98.10;;;;;;5070606;28;20041;-86
2022/08/01 12:43:07;;;;;;;7.30;1.45;;;24.20;97.10;;;;;;5070018;28;20041;-86
2022/08/01 12:45:39;;;;;;;9.18;2.10;;;24.30;96.50;;;;;;5070530;28;20036;-86